sensor_id;sensor_type;location;lat;lon;timestamp;pressure;altitude;pressure_sealevel;temperature;humidity
31162;BME280;17796;49.296;-117.656;2023-04-01T00:11:13;95900;;;6.81747;42.31592
31162;BME280;17796;49.296;-117.656;2023-04-01T00:26:17;95900;;;6.84828;41.78351
31162;BME280;17796;49.296;-117.656;2023-04-01T00:41:22;95900;;;4.41274;54.20218
31162;BME280;17796;49.296;-117.656;2023-04-01T00:56:26;95900;;;4.57185;56.11971
31162;BME280;17796;49.296;-117.656;2023-04-01T01:11:34;95900;;;5.20415;53.2303
31162;BME280;17796;49.296;-117.656;2023-04-01T01:26:46;95900;;;4.12724;55.95087
31162;BME280;17796;49.296;-117.656;2023-04-01T01:41:56;95900;;;3.74233;56.35584
31162;BME280;17796;49.296;-117.656;2023-04-01T01:57:04;95900;;;4.00497;56.92751
31162;BME280;17796;49.296;-117.656;2023-04-01T02:12:10;95900;;;3.59974;60.13268
31162;BME280;17796;49.296;-117.656;2023-04-01T02:27:17;95900;;;4.37971;58.45394
31162;BME280;17796;49.296;-117.656;2023-04-01T02:42:22;95900;;;4.25077;60.13347
31162;BME280;17796;49.296;-117.656;2023-04-01T02:57:26;95900;;;4.04625;61.93442
31162;BME280;17796;49.296;-117.656;2023-04-01T03:12:29;95900;;;4.50293;62.80277
31162;BME280;17796;49.296;-117.656;2023-04-01T03:27:33;95900;;;4.2711;61.12684
31162;BME280;17796;49.296;-117.656;2023-04-01T03:42:37;95900;;;2.54095;71.49958
31162;BME280;17796;49.296;-117.656;2023-04-01T03:57:41;95900;;;3.20563;70.34489
31162;BME280;17796;49.296;-117.656;2023-04-01T04:12:44;95900;;;3.25708;69.92967
31162;BME280;17796;49.296;-117.656;2023-04-01T04:27:48;95800;;;2.81089;72.80385
31162;BME280;17796;49.296;-117.656;2023-04-01T04:42:52;95900;;;3.11639;72.53697
31162;BME280;17796;49.296;-117.656;2023-04-01T04:57:55;95800;;;2.7731;71.56754
31162;BME280;17796;49.296;-117.656;2023-04-01T05:12:59;95800;;;2.84932;70.62619
31162;BME280;17796;49.296;-117.656;2023-04-01T05:28:03;95800;;;3.05193;67.95665
31162;BME280;17796;49.296;-117.656;2023-04-01T05:43:07;95800;;;2.587;69.89565
31162;BME280;17796;49.296;-117.656;2023-04-01T05:58:10;95800;;;2.87313;70.3195
31162;BME280;17796;49.296;-117.656;2023-04-01T06:13:16;95700;;;3.3568;68.18797
31162;BME280;17796;49.296;-117.656;2023-04-01T06:28:41;95700;;;4.28158;63.31063
31162;BME280;17796;49.296;-117.656;2023-04-01T06:43:58;95700;;;2.54985;70.82877
31162;BME280;17796;49.296;-117.656;2023-04-01T06:59:10;95700;;;1.96171;76.51166
31162;BME280;17796;49.296;-117.656;2023-04-01T07:14:19;95700;;;2.21163;74.12291
31162;BME280;17796;49.296;-117.656;2023-04-01T07:29:27;95700;;;2.71625;75.8052
31162;BME280;17796;49.296;-117.656;2023-04-01T07:44:33;95700;;;2.48919;76.37843
31162;BME280;17796;49.296;-117.656;2023-04-01T07:59:49;95700;;;2.22719;77.79862
31162;BME280;17796;49.296;-117.656;2023-04-01T08:15:04;95600;;;2.68608;74.18012
31162;BME280;17796;49.296;-117.656;2023-04-01T08:30:18;95600;;;3.64928;68.623
31162;BME280;17796;49.296;-117.656;2023-04-01T08:45:36;95600;;;3.97893;66.76712
31162;BME280;17796;49.296;-117.656;2023-04-01T09:00:52;95600;;;3.56608;70.16816
31162;BME280;17796;49.296;-117.656;2023-04-01T09:16:15;95600;;;3.65119;70.87556
31162;BME280;17796;49.296;-117.656;2023-04-01T09:31:39;95500;;;3.83253;68.57542
31162;BME280;17796;49.296;-117.656;2023-04-01T09:47:16;95500;;;3.74138;69.83357
31162;BME280;17796;49.296;-117.656;2023-04-01T10:02:37;95500;;;3.49812;69.3297
31162;BME280;17796;49.296;-117.656;2023-04-01T10:18:10;95500;;;2.2888;75.61872
31162;BME280;17796;49.296;-117.656;2023-04-01T10:33:57;95400;;;3.78648;68.70469
31162;BME280;17796;49.296;-117.656;2023-04-01T10:49:28;95400;;;3.2574;71.94769
31162;BME280;17796;49.296;-117.656;2023-04-01T11:04:56;95400;;;3.4346;71.39384
31162;BME280;17796;49.296;-117.656;2023-04-01T11:22:13;95400;;;3.46827;72.35054
31162;BME280;17796;49.296;-117.656;2023-04-01T11:38:18;95400;;;3.92145;67.06732
31162;BME280;17796;49.296;-117.656;2023-04-01T11:53:33;95300;;;3.43873;71.34452
31162;BME280;17796;49.296;-117.656;2023-04-01T12:08:48;95300;;;3.81061;69.29749
31162;BME280;17796;49.296;-117.656;2023-04-01T12:24:04;95300;;;3.58482;71.31184
31162;BME280;17796;49.296;-117.656;2023-04-01T12:39:31;95300;;;3.47367;71.46309
31162;BME280;17796;49.296;-117.656;2023-04-01T12:54:57;95300;;;3.82427;69.50287
31162;BME280;17796;49.296;-117.656;2023-04-01T13:10:20;95300;;;3.64643;70.21288
31162;BME280;17796;49.296;-117.656;2023-04-01T13:25:41;95300;;;3.61149;71.22565
31162;BME280;17796;49.296;-117.656;2023-04-01T13:40:55;95200;;;3.31901;72.80698
31162;BME280;17796;49.296;-117.656;2023-04-01T13:56:13;95200;;;2.76738;75.66677
31162;BME280;17796;49.296;-117.656;2023-04-01T14:11:28;95200;;;2.87186;73.99236
31162;BME280;17796;49.296;-117.656;2023-04-01T14:26:54;95200;;;3.31456;70.39731
31162;BME280;17796;49.296;-117.656;2023-04-01T14:42:17;95200;;;2.30627;75.19723
31162;BME280;17796;49.296;-117.656;2023-04-01T14:57:39;95200;;;2.09159;73.29415
31162;BME280;17796;49.296;-117.656;2023-04-01T15:12:46;95200;;;2.76484;72.4808
31162;BME280;17796;49.296;-117.656;2023-04-01T15:28:02;95200;;;2.44536;72.98278
31162;BME280;17796;49.296;-117.656;2023-04-01T15:43:17;95200;;;2.37328;76.91721
31162;BME280;17796;49.296;-117.656;2023-04-01T15:58:34;95200;;;2.06523;80.51482
31162;BME280;17796;49.296;-117.656;2023-04-01T16:13:53;95200;;;2.42917;79.02557
31162;BME280;17796;49.296;-117.656;2023-04-01T16:29:08;95200;;;1.99537;79.39483
31162;BME280;17796;49.296;-117.656;2023-04-01T16:44:23;95200;;;2.4063;79.21548
31162;BME280;17796;49.296;-117.656;2023-04-01T16:59:29;95200;;;2.04205;79.66811
31162;BME280;17796;49.296;-117.656;2023-04-01T17:14:40;95200;;;1.48504;83.36254
31162;BME280;17796;49.296;-117.656;2023-04-01T17:30:02;95200;;;2.15161;82.28329
31162;BME280;17796;49.296;-117.656;2023-04-01T17:45:18;95200;;;1.94456;84.39197
31162;BME280;17796;49.296;-117.656;2023-04-01T18:00:29;95200;;;1.10014;84.57802
31162;BME280;17796;49.296;-117.656;2023-04-01T18:15:40;95300;;;1.01916;88.01413
31162;BME280;17796;49.296;-117.656;2023-04-01T18:30:51;95300;;;1.73369;86.09757
31162;BME280;17796;49.296;-117.656;2023-04-01T18:45:59;95300;;;0.60855;85.40763
31162;BME280;17796;49.296;-117.656;2023-04-01T19:01:12;95300;;;1.99314;81.88867
31162;BME280;17796;49.296;-117.656;2023-04-01T19:16:23;95300;;;3.24057;75.18569
31162;BME280;17796;49.296;-117.656;2023-04-01T19:31:40;95300;;;3.6242;70.11184
31162;BME280;17796;49.296;-117.656;2023-04-01T19:46:55;95300;;;4.19139;69.63503
31162;BME280;17796;49.296;-117.656;2023-04-01T20:02:48;95300;;;3.86333;65.39354
31162;BME280;17796;49.296;-117.656;2023-04-01T20:18:01;95300;;;4.41496;74.25545
31162;BME280;17796;49.296;-117.656;2023-04-01T20:33:12;95300;;;4.51468;80.16968
31162;BME280;17796;49.296;-117.656;2023-04-01T20:48:44;95400;;;3.49685;72.53482
31162;BME280;17796;49.296;-117.656;2023-04-01T21:04:09;95300;;;3.07225;71.41493
31162;BME280;17796;49.296;-117.656;2023-04-01T21:19:28;95300;;;2.93252;72.49997
31162;BME280;17796;49.296;-117.656;2023-04-01T21:34:46;95300;;;2.51015;76.60562
31162;BME280;17796;49.296;-117.656;2023-04-01T21:50:02;95300;;;3.21548;72.69932
31162;BME280;17796;49.296;-117.656;2023-04-01T22:05:40;95300;;;3.54671;73.5865
31162;BME280;17796;49.296;-117.656;2023-04-01T22:20:50;95300;;;4.59185;72.3581
31162;BME280;17796;49.296;-117.656;2023-04-01T22:36:03;95300;;;3.24819;73.51195
31162;BME280;17796;49.296;-117.656;2023-04-01T22:51:15;95300;;;4.25713;72.90573
31162;BME280;17796;49.296;-117.656;2023-04-01T23:06:23;95300;;;4.77351;66.31098
31162;BME280;17796;49.296;-117.656;2023-04-01T23:21:33;95300;;;4.99899;62.49858
31162;BME280;17796;49.296;-117.656;2023-04-01T23:36:42;95400;;;3.69692;62.51233
31162;BME280;17796;49.296;-117.656;2023-04-01T23:51:49;95300;;;2.66131;67.32269
